Willmar, MN

2:51 PM CDT on August 20, 2017 (GMT -0500)
Willmar

Weather History for KBDH - April, 2013

Change the Weather History Date:

Thursday, April 11, 2013

  Actual Average (KBBB) Record (KBBB)
Temperature  
Mean Temperature 35 °F -  
Max Temperature 37 °F 53 °F 84 °F (1968)
Min Temperature 33 °F 32 °F 15 °F (2004)
Degree Days  
Heating Degree Days 30    
Moisture  
Dew Point 27 °F    
Average Humidity 70    
Maximum Humidity 75    
Minimum Humidity 56    
Precipitation  
Precipitation 0.06 in - - ()
Sea Level Pressure  
Sea Level Pressure 29.75 in    
Wind  
Wind Speed 16 mph (ENE)    
Max Wind Speed 25 mph    
Max Gust Speed 33 mph    
Visibility 3 miles    
Events Snow    
Averages and records for this station are not official NWS values.
T = Trace of Precipitation, MM = Missing Value Source: NWS Daily Summary

Daily Weather History Graph

Daily Weather History Graph

Search for Another Location

Airport or City:

Trip Planner

Search our weather history database for the weather conditions in past years. The results will help you decide how hot, cold, wet, or windy it might be!

Date:

Astronomy

Apr. 11, 2013 Rise Set
Actual Time 6:42 AM CDT 8:01 PM CDT
Civil Twilight 6:11 AM CDT 8:31 PM CDT
Nautical Twilight 5:35 AM CDT 9:08 PM CDT
Astronomical Twilight 4:56 AM CDT 9:47 PM CDT
Moon 7:10 AM CDT (4/11) 9:42 PM CDT (4/11)
Length of Visible Light 14h 20m
Length of Day
13h 19m
New Moon, 2% of the Moon is Illuminated
Apr 11
New Moon
Apr 18
First Quarter
Apr 25
Full
May 2
Last Quarter
May 9
New

Hourly Weather History & Observations

Time (CDT) Temp. Windchill Dew Point Humidity Pressure Visibility Wind Dir Wind Speed Gust Speed Precip Events Conditions
12:15 AM 35.6 °F 26.2 °F 26.6 °F 70% 29.89 in 4.0 mi NE 15.0 mph 25.3 mph N/A Snow Light Snow
12:35 AM 35.6 °F 26.6 °F 24.8 °F 65% 29.89 in 5.0 mi NE 13.8 mph 19.6 mph N/A Snow Light Snow
12:55 AM 37.4 °F 28.9 °F 24.8 °F 60% 29.89 in 10.0 mi ENE 13.8 mph 21.9 mph N/A Snow Light Snow
1:15 AM 37.4 °F 27.8 °F 23.0 °F 56% 29.90 in 5.0 mi ENE 17.3 mph 24.2 mph N/A   Overcast
1:35 AM 37.4 °F 27.5 °F 24.8 °F 60% 29.89 in 3.0 mi ENE 18.4 mph 25.3 mph N/A Snow Light Snow
1:55 AM 37.4 °F 28.2 °F 24.8 °F 60% 29.87 in 4.0 mi ENE 16.1 mph 21.9 mph 0.01 in Snow Light Snow
2:15 AM 35.6 °F 26.6 °F 24.8 °F 65% 29.86 in 3.0 mi ENE 13.8 mph - N/A Snow Light Snow
2:35 AM 35.6 °F 27.1 °F 26.6 °F 70% 29.85 in 3.0 mi NE 12.7 mph - N/A Snow Light Snow
2:56 AM 35.6 °F 28.0 °F 24.8 °F 65% 29.85 in 2.5 mi ENE 10.4 mph - N/A Snow Light Snow
3:15 AM 35.6 °F 27.5 °F 26.6 °F 70% 29.84 in 1.0 mi ENE 11.5 mph 16.1 mph N/A Snow Light Snow
3:35 AM 35.6 °F 28.0 °F 26.6 °F 70% 29.84 in 2.5 mi NE 10.4 mph - 0.01 in Snow Light Snow
3:55 AM 35.6 °F 27.5 °F 26.6 °F 70% 29.84 in 0.8 mi ENE 11.5 mph - 0.02 in Snow Snow
4:15 AM 33.8 °F 24.8 °F 26.6 °F 75% 29.82 in 1.2 mi NE 12.7 mph 17.3 mph 0.01 in Snow Light Snow
4:35 AM 33.8 °F 24.3 °F 26.6 °F 75% 29.83 in 0.8 mi ENE 13.8 mph 18.4 mph 0.01 in Snow Snow
4:56 AM 33.8 °F 25.3 °F 26.6 °F 75% 29.82 in 0.5 mi ENE 11.5 mph 18.4 mph N/A Snow Heavy Snow
5:15 AM 33.8 °F 23.9 °F 26.6 °F 75% 29.81 in 1.0 mi ENE 15.0 mph 19.6 mph N/A Snow Light Snow
5:35 AM 33.8 °F 23.9 °F 26.6 °F 75% 29.80 in 0.8 mi ENE 15.0 mph 20.7 mph N/A Snow Snow
5:56 AM 33.8 °F 22.8 °F 26.6 °F 75% 29.78 in 0.5 mi ENE 18.4 mph - N/A Snow Heavy Snow
6:15 AM 33.8 °F 23.2 °F 26.6 °F 75% 29.77 in 0.5 mi ENE 17.3 mph 25.3 mph N/A Snow Snow
6:35 AM 33.8 °F 22.8 °F 24.8 °F 70% 29.76 in 0.5 mi ENE 18.4 mph 25.3 mph N/A Snow Snow
6:55 AM 33.8 °F 22.2 °F 24.8 °F 70% 29.76 in 0.5 mi ENE 20.7 mph 24.2 mph N/A Snow Snow
7:15 AM 33.8 °F 22.2 °F 24.8 °F 70% 29.75 in 0.2 mi ENE 20.7 mph - N/A Snow Snow
7:35 AM 33.8 °F 21.6 °F 24.8 °F 70% 29.74 in 0.2 mi ENE 23.0 mph 29.9 mph N/A Snow Heavy Snow
7:55 AM 33.8 °F 21.3 °F 26.6 °F 75% 29.72 in 0.2 mi ENE 24.2 mph 33.4 mph N/A Snow Heavy Snow
8:15 AM 33.8 °F 21.9 °F 24.8 °F 70% 29.73 in 0.5 mi ENE 21.9 mph 27.6 mph N/A Snow Snow
8:35 AM 33.8 °F 21.6 °F 24.8 °F 70% 29.73 in 0.2 mi ENE 23.0 mph 31.1 mph N/A Snow Snow
8:55 AM 33.8 °F 21.0 °F 24.8 °F 70% 29.73 in 1.8 mi ENE 25.3 mph 31.1 mph N/A Snow Light Snow
9:15 AM 33.8 °F 21.3 °F 24.8 °F 70% 29.73 in 1.0 mi ENE 24.2 mph 33.4 mph N/A Snow Light Snow
9:35 AM 33.8 °F 21.6 °F 24.8 °F 70% 29.73 in 3.0 mi ENE 23.0 mph 31.1 mph N/A   Haze
9:55 AM 35.6 °F 24.2 °F 24.8 °F 65% 29.72 in 5.0 mi East 21.9 mph 26.5 mph N/A   Haze
10:15 AM 35.6 °F 24.5 °F 24.8 °F 65% 29.73 in 4.0 mi ENE 20.7 mph - N/A   Haze
10:35 AM 35.6 °F 24.0 °F 24.8 °F 65% 29.73 in 4.0 mi East 23.0 mph 32.2 mph 0.01 in   Haze
10:54 AM 35.6 °F 24.0 °F 24.8 °F 65% 29.73 in 4.0 mi East 23.0 mph 32.2 mph 0.01 in   Haze
11:15 AM 37.4 °F 26.9 °F 24.8 °F 60% 29.74 in 7.0 mi East 20.7 mph 28.8 mph 0.01 in   Mostly Cloudy
11:35 AM 37.4 °F 26.9 °F 24.8 °F 60% 29.73 in 5.0 mi East 20.7 mph 27.6 mph 0.01 in   Haze
12:15 PM 37.4 °F 26.4 °F 24.8 °F 60% 29.73 in 4.0 mi East 23.0 mph 29.9 mph N/A   Haze
12:35 PM 37.4 °F 26.4 °F 24.8 °F 60% 29.73 in 1.8 mi East 23.0 mph 28.8 mph N/A   Mostly Cloudy
12:54 PM 37.4 °F 27.2 °F 26.6 °F 65% 29.72 in 0.8 mi East 19.6 mph 26.5 mph N/A Snow Light Snow
1:15 PM 37.4 °F 27.5 °F 26.6 °F 65% 29.71 in 0.8 mi ENE 18.4 mph 26.5 mph N/A   Overcast
1:35 PM 37.4 °F 26.6 °F 26.6 °F 65% 29.70 in 1.0 mi ENE 21.9 mph 26.5 mph N/A   Overcast
1:55 PM 37.4 °F 26.9 °F 26.6 °F 65% 29.70 in 0.8 mi ENE 20.7 mph 24.2 mph N/A   Overcast
2:15 PM 37.4 °F 29.3 °F 28.4 °F 70% 29.70 in 0.8 mi ENE 12.7 mph 18.4 mph N/A   Overcast
2:35 PM 37.4 °F 28.2 °F 28.4 °F 70% 29.69 in 1.2 mi ENE 16.1 mph 19.6 mph N/A   Overcast
2:55 PM 37.4 °F 27.8 °F 28.4 °F 70% 29.70 in 1.2 mi ENE 17.3 mph - N/A   Overcast
3:15 PM 37.4 °F 28.5 °F 28.4 °F 70% 29.70 in 2.0 mi ENE 15.0 mph - N/A   Haze
3:35 PM 37.4 °F 27.8 °F 28.4 °F 70% 29.71 in 1.8 mi ENE 17.3 mph - N/A   Haze
3:55 PM 37.4 °F 27.5 °F 28.4 °F 70% 29.70 in 2.0 mi ENE 18.4 mph 21.9 mph N/A   Haze
4:15 PM 37.4 °F 28.5 °F 30.2 °F 75% 29.70 in 1.8 mi ENE 15.0 mph 23.0 mph N/A   Haze
4:35 PM 37.4 °F 29.3 °F 30.2 °F 75% 29.71 in 1.2 mi ENE 12.7 mph 19.6 mph N/A Snow Light Snow
4:55 PM 37.4 °F 29.3 °F 30.2 °F 75% 29.71 in 1.0 mi ENE 12.7 mph - N/A Snow Light Snow
5:15 PM 37.4 °F 28.5 °F 30.2 °F 75% 29.72 in 1.8 mi ENE 15.0 mph - N/A Snow Light Snow
5:35 PM 37.4 °F 29.8 °F 30.2 °F 75% 29.73 in 2.5 mi NE 11.5 mph - N/A Snow Light Snow
5:55 PM 37.4 °F 28.9 °F 30.2 °F 75% 29.72 in 2.5 mi ENE 13.8 mph 17.3 mph N/A Snow Light Snow
6:15 PM 37.4 °F 29.3 °F 30.2 °F 75% 29.73 in 5.0 mi NE 12.7 mph - N/A   Haze
6:35 PM 37.4 °F 29.8 °F 28.4 °F 70% 29.73 in 4.0 mi ENE 11.5 mph 21.9 mph N/A Snow Light Snow
6:55 PM 35.6 °F 27.1 °F 28.4 °F 75% 29.73 in 4.0 mi NE 12.7 mph 17.3 mph N/A Snow Light Snow
7:15 PM 35.6 °F 27.1 °F 28.4 °F 75% 29.72 in 4.0 mi NE 12.7 mph - N/A   Overcast
7:35 PM 35.6 °F 27.1 °F 28.4 °F 75% 29.71 in 5.0 mi NE 12.7 mph 18.4 mph N/A Snow Light Snow
7:55 PM 35.6 °F 25.9 °F 28.4 °F 75% 29.70 in 7.0 mi NE 16.1 mph 23.0 mph N/A Snow Light Snow
8:15 PM 35.6 °F 25.5 °F 28.4 °F 75% 29.70 in 5.0 mi NE 17.3 mph 25.3 mph N/A Snow Light Snow
8:35 PM 35.6 °F 24.8 °F 26.6 °F 70% 29.70 in 5.0 mi NE 19.6 mph 24.2 mph N/A Snow Light Snow
8:55 PM 35.6 °F 26.2 °F 26.6 °F 70% 29.71 in 10.0 mi NE 15.0 mph 20.7 mph N/A   Mostly Cloudy
9:15 PM 35.6 °F 25.9 °F 26.6 °F 70% 29.72 in 10.0 mi NE 16.1 mph 23.0 mph N/A   Overcast
9:35 PM 35.6 °F 27.1 °F 26.6 °F 70% 29.72 in 10.0 mi NE 12.7 mph 21.9 mph N/A   Overcast
9:55 PM 35.6 °F 26.6 °F 26.6 °F 70% 29.73 in 10.0 mi NE 13.8 mph 24.2 mph N/A   Overcast
10:15 PM 35.6 °F 26.2 °F 26.6 °F 70% 29.73 in 10.0 mi NE 15.0 mph 23.0 mph N/A   Overcast
10:35 PM 35.6 °F 25.9 °F 26.6 °F 70% 29.73 in 7.0 mi NE 16.1 mph 20.7 mph N/A Snow Light Snow
10:55 PM 33.8 °F 24.3 °F 26.6 °F 75% 29.73 in 5.0 mi NE 13.8 mph - N/A Snow Light Snow
11:15 PM 33.8 °F 23.9 °F 26.6 °F 75% 29.73 in 5.0 mi NE 15.0 mph - N/A Snow Light Snow
11:35 PM 33.8 °F 24.3 °F 26.6 °F 75% 29.74 in 4.0 mi NE 13.8 mph - N/A Snow Light Snow
11:55 PM 33.8 °F 25.3 °F 26.6 °F 75% 29.74 in 4.0 mi NE 11.5 mph - N/A Snow Light Snow